createdAt,value
2018-08-03T00:01:16.527Z,100586.14
2018-08-03T00:03:47.464Z,100579.64
2018-08-03T00:06:18.506Z,100573.84
2018-08-03T00:08:49.481Z,100566.75
2018-08-03T00:11:20.500Z,100571.72
2018-08-03T00:13:51.546Z,100571.69
2018-08-03T00:16:22.632Z,100571.17
2018-08-03T00:18:53.530Z,100569.88
2018-08-03T00:21:24.485Z,100566.72
2018-08-03T00:23:55.487Z,100573.72
2018-08-03T00:26:26.526Z,100575.08
2018-08-03T00:28:57.499Z,100570.72
2018-08-03T00:31:28.506Z,100567.52
2018-08-03T00:33:59.504Z,100567.39
2018-08-03T00:36:30.534Z,100570.49
2018-08-03T00:39:01.514Z,100563.45
2018-08-03T00:41:32.518Z,100570.62
2018-08-03T00:44:03.526Z,100566.46
2018-08-03T00:46:34.567Z,100569.36
2018-08-03T00:49:05.493Z,100576.78
2018-08-03T00:51:36.529Z,100566.90
2018-08-03T00:54:07.501Z,100574.18
2018-08-03T00:56:38.522Z,100573.34
2018-08-03T00:59:09.510Z,100571.59
2018-08-03T01:01:40.512Z,100566.91
2018-08-03T01:04:11.498Z,100566.22
2018-08-03T01:06:42.498Z,100567.55
2018-08-03T01:09:14.286Z,100573.70
2018-08-03T01:11:45.378Z,100572.70
2018-08-03T01:14:16.496Z,100573.70
2018-08-03T01:16:47.485Z,100574.41
2018-08-03T01:19:18.489Z,100561.36
2018-08-03T01:21:49.515Z,100566.27
2018-08-03T01:24:20.473Z,100568.38
2018-08-03T01:26:51.456Z,100567.64
2018-08-03T01:29:22.478Z,100562.33
2018-08-03T01:31:53.530Z,100567.58
2018-08-03T01:34:24.460Z,100558.61
2018-08-03T01:36:55.512Z,100567.70
2018-08-03T01:39:26.634Z,100563.45
2018-08-03T01:41:57.554Z,100562.27
2018-08-03T01:44:28.520Z,100566.13
2018-08-03T01:46:59.484Z,100570.00
2018-08-03T01:49:30.451Z,100571.41
2018-08-03T01:52:01.531Z,100568.01
2018-08-03T01:54:32.438Z,100566.41
2018-08-03T01:57:04.416Z,100566.41
2018-08-03T01:59:35.424Z,100563.05
2018-08-03T02:02:06.452Z,100564.94
2018-08-03T02:04:37.493Z,100568.05
2018-08-03T02:07:08.497Z,100570.87
2018-08-03T02:09:39.525Z,100574.62
2018-08-03T02:12:10.675Z,100574.30
2018-08-03T02:14:41.556Z,100570.78
2018-08-03T02:17:12.541Z,100580.91
2018-08-03T02:19:43.506Z,100573.11
2018-08-03T02:22:14.536Z,100579.97
2018-08-03T02:24:45.516Z,100573.84
2018-08-03T02:27:16.523Z,100582.68
2018-08-03T02:29:47.499Z,100579.97
2018-08-03T02:32:18.502Z,100578.72
2018-08-03T02:34:49.507Z,100574.45
2018-08-03T02:37:20.521Z,100579.56
2018-08-03T02:39:51.530Z,100576.96
2018-08-03T02:42:22.834Z,100577.16
2018-08-03T02:44:53.304Z,100575.83
2018-08-03T02:47:24.417Z,100568.55
2018-08-03T02:49:55.522Z,100570.83
2018-08-03T02:52:26.557Z,100573.63
2018-08-03T02:54:57.493Z,100570.30
2018-08-03T02:57:28.517Z,100574.81
2018-08-03T02:59:59.545Z,100579.88
2018-08-03T03:02:30.584Z,100571.98
2018-08-03T03:05:01.549Z,100574.16
2018-08-03T03:07:32.565Z,100582.82
2018-08-03T03:10:03.554Z,100585.70
2018-08-03T03:12:34.575Z,100585.30
2018-08-03T03:15:06.349Z,100579.48
2018-08-03T03:17:37.454Z,100585.63
2018-08-03T03:20:38.749Z,100588.21
2018-08-03T03:23:09.652Z,100579.25
2018-08-03T03:25:40.566Z,100583.94
2018-08-03T03:28:11.509Z,100586.42
2018-08-03T03:30:42.532Z,100579.34
2018-08-03T03:33:13.606Z,100576.44
2018-08-03T03:35:44.586Z,100585.52
2018-08-03T03:38:15.565Z,100583.39
2018-08-03T03:40:46.501Z,100583.91
2018-08-03T03:43:17.715Z,100587.53
2018-08-03T03:45:49.215Z,100587.12
2018-08-03T03:48:20.445Z,100586.28
2018-08-03T03:50:51.560Z,100586.08
2018-08-03T03:53:23.290Z,100588.56
2018-08-03T03:55:54.369Z,100585.75
2018-08-03T03:58:25.393Z,100590.73
2018-08-03T04:00:56.490Z,100593.13
2018-08-03T04:03:27.519Z,100590.55
2018-08-03T04:05:58.538Z,100588.53
2018-08-03T04:08:29.578Z,100588.95
2018-08-03T04:11:00.610Z,100590.30
2018-08-03T04:13:31.521Z,100593.04
2018-08-03T04:16:02.542Z,100594.95
2018-08-03T04:18:33.583Z,100593.43
2018-08-03T04:21:04.524Z,100597.36
2018-08-03T04:23:35.527Z,100601.11
2018-08-03T04:26:06.610Z,100601.71
2018-08-03T04:28:37.578Z,100597.18
2018-08-03T04:31:08.509Z,100604.11
2018-08-03T04:33:41.234Z,100601.11
2018-08-03T04:36:12.364Z,100601.71
2018-08-03T04:38:43.403Z,100606.52
2018-08-03T04:41:14.499Z,100616.77
2018-08-03T04:43:45.648Z,100607.62
2018-08-03T04:46:16.597Z,100613.86
2018-08-03T04:48:47.640Z,100616.55
2018-08-03T04:51:19.297Z,100623.91
2018-08-03T04:53:50.378Z,100613.27
2018-08-03T04:56:21.507Z,100609.47
2018-08-03T04:58:52.505Z,100613.35
2018-08-03T05:01:23.654Z,100612.77
2018-08-03T05:03:55.301Z,100612.17
2018-08-03T05:06:26.385Z,100615.04
2018-08-03T05:08:57.550Z,100613.27
2018-08-03T05:11:28.504Z,100608.59
2018-08-03T05:13:59.498Z,100617.15
2018-08-03T05:16:30.539Z,100612.91
2018-08-03T05:19:01.567Z,100613.64
2018-08-03T05:21:33.305Z,100616.30
2018-08-03T05:24:04.705Z,100613.95
2018-08-03T05:26:35.604Z,100617.78
2018-08-03T05:29:06.569Z,100619.03
2018-08-03T05:31:37.574Z,100623.30
2018-08-03T05:34:08.852Z,100620.72
2018-08-03T05:36:39.279Z,100613.29
2018-08-03T05:39:12.468Z,100620.45
2018-08-03T05:41:43.522Z,100614.41
2018-08-03T05:44:14.530Z,100612.23
2018-08-03T05:46:45.510Z,100614.31
2018-08-03T05:49:16.505Z,100617.34
2018-08-03T05:51:48.387Z,100619.82
2018-08-03T05:54:19.501Z,100617.62
2018-08-03T05:56:50.491Z,100620.12
2018-08-03T05:59:21.512Z,100626.25
2018-08-03T06:01:52.490Z,100625.12
2018-08-03T06:04:23.493Z,100628.41
2018-08-03T06:06:54.492Z,100631.62
2018-08-03T06:09:25.526Z,100631.77
2018-08-03T06:11:56.609Z,100628.66
2018-08-03T06:14:27.586Z,100634.34
2018-08-03T06:16:58.572Z,100634.55
2018-08-03T06:19:29.551Z,100626.80
2018-08-03T06:22:00.618Z,100632.90
2018-08-03T06:24:32.386Z,100631.66
2018-08-03T06:27:03.494Z,100630.63
2018-08-03T06:29:34.528Z,100633.98
2018-08-03T06:32:05.479Z,100632.91
2018-08-03T06:34:36.705Z,100635.62
2018-08-03T06:37:08.397Z,100634.33
2018-08-03T06:42:11.463Z,100632.91
2018-08-03T06:44:42.485Z,100631.95
2018-08-03T06:47:17.213Z,100632.56
2018-08-03T06:49:48.376Z,100634.56
2018-08-03T06:52:19.480Z,100638.57
2018-08-03T06:54:51.209Z,100637.01
2018-08-03T06:57:22.911Z,100639.52
2018-08-03T06:59:54.194Z,100635.03
2018-08-03T07:02:25.584Z,100632.57
2018-08-03T07:04:57.469Z,100629.98
2018-08-03T07:07:28.728Z,100633.34
2018-08-03T07:09:59.555Z,100630.06
2018-08-03T07:12:30.528Z,100622.98
2018-08-03T07:15:01.551Z,100630.47
2018-08-03T07:17:32.509Z,100629.16
2018-08-03T07:20:03.735Z,100625.77
2018-08-03T07:22:34.558Z,100625.25
2018-08-03T07:25:05.698Z,100630.91
2018-08-03T07:27:36.656Z,100625.38
2018-08-03T07:30:08.421Z,100614.44
2018-08-03T07:32:39.479Z,100622.52
2018-08-03T07:35:10.530Z,100623.94
2018-08-03T07:37:41.504Z,100621.77
2018-08-03T07:40:13.505Z,100617.92
2018-08-03T07:42:44.503Z,100618.08
2018-08-03T07:45:16.218Z,100622.44
2018-08-03T07:47:47.366Z,100623.25
2018-08-03T07:50:18.401Z,100628.19
2018-08-03T07:52:49.520Z,100622.25
2018-08-03T07:55:20.525Z,100620.89
2018-08-03T07:57:51.486Z,100614.64
2018-08-03T08:00:22.505Z,100613.60
2018-08-03T08:02:53.492Z,100609.11
2018-08-03T08:05:24.517Z,100612.91
2018-08-03T08:07:55.714Z,100602.80
2018-08-03T08:10:26.569Z,100603.72
2018-08-03T08:12:57.503Z,100597.11
2018-08-03T08:15:28.537Z,100593.59
2018-08-03T08:17:59.490Z,100591.58
2018-08-03T08:20:30.569Z,100590.20
2018-08-03T08:23:03.174Z,100593.14
2018-08-03T08:25:34.356Z,100588.19
2018-08-03T08:28:05.418Z,100589.86
2018-08-03T08:30:37.019Z,100588.83
2018-08-03T08:33:08.289Z,100582.05
2018-08-03T08:35:39.557Z,100589.81
2018-08-03T08:38:10.530Z,100585.06
2018-08-03T08:40:41.468Z,100583.49
2018-08-03T08:43:12.490Z,100575.05
2018-08-03T08:45:43.555Z,100582.86
2018-08-03T08:48:14.494Z,100584.83
2018-08-03T08:50:45.493Z,100574.66
2018-08-03T08:53:16.492Z,100577.39
2018-08-03T08:55:47.607Z,100575.63
2018-08-03T08:58:18.510Z,100572.41
2018-08-03T09:00:50.541Z,100570.97
2018-08-03T09:03:21.450Z,100570.55
2018-08-03T09:05:52.471Z,100572.64
2018-08-03T09:08:23.469Z,100571.70
2018-08-03T09:10:54.469Z,100576.41
2018-08-03T09:13:26.330Z,100564.62
2018-08-03T09:15:57.349Z,100562.78
2018-08-03T09:18:28.437Z,100567.38
2018-08-03T09:20:59.480Z,100554.72
2018-08-03T09:23:30.482Z,100556.66
2018-08-03T09:26:01.504Z,100546.48
2018-08-03T09:28:32.512Z,100551.33
2018-08-03T09:31:03.834Z,100556.30
2018-08-03T09:33:34.282Z,100552.52
2018-08-03T09:36:05.398Z,100538.08
2018-08-03T09:38:36.488Z,100548.56
2018-08-03T09:41:07.522Z,100552.80
2018-08-03T09:43:38.583Z,100540.77
2018-08-03T09:46:09.481Z,100540.92
2018-08-03T09:48:40.437Z,100543.98
2018-08-03T09:51:11.916Z,100536.60
2018-08-03T09:53:42.677Z,100529.09
2018-08-03T09:56:13.563Z,100537.70
2018-08-03T09:58:44.493Z,100521.83
2018-08-03T10:01:15.457Z,100516.22
2018-08-03T10:03:46.747Z,100517.53
2018-08-03T10:06:18.528Z,100515.73
2018-08-03T10:08:49.489Z,100508.41
2018-08-03T10:11:20.489Z,100511.69
2018-08-03T10:13:51.477Z,100512.69
2018-08-03T10:16:22.485Z,100507.57
2018-08-03T10:18:53.502Z,100496.30
2018-08-03T10:21:24.473Z,100504.64
2018-08-03T10:23:55.482Z,100497.95
2018-08-03T10:26:26.564Z,100499.00
2018-08-03T10:28:57.467Z,100497.23
2018-08-03T10:31:28.469Z,100496.50
2018-08-03T10:34:01.237Z,100495.11
2018-08-03T10:36:32.770Z,100493.16
2018-08-03T10:39:04.460Z,100493.02
2018-08-03T10:41:35.550Z,100489.34
2018-08-03T10:44:06.548Z,100486.48
2018-08-03T10:46:37.546Z,100485.02
2018-08-03T10:49:09.522Z,100492.36
2018-08-03T10:51:40.526Z,100479.39
2018-08-03T10:54:11.474Z,100476.00
2018-08-03T10:56:42.520Z,100478.99
2018-08-03T10:59:13.515Z,100476.16
2018-08-03T11:01:44.573Z,100465.62
2018-08-03T11:04:15.505Z,100470.57
2018-08-03T11:06:46.540Z,100465.75
2018-08-03T11:09:17.495Z,100466.81
2018-08-03T11:11:48.557Z,100464.20
2018-08-03T11:14:19.529Z,100468.09
2018-08-03T11:16:50.513Z,100461.52
2018-08-03T11:19:21.493Z,100454.91
2018-08-03T11:21:52.582Z,100452.35
2018-08-03T11:24:23.546Z,100451.26
2018-08-03T11:26:54.486Z,100452.67
2018-08-03T11:29:25.527Z,100449.61
2018-08-03T11:31:56.501Z,100446.32
2018-08-03T11:34:27.489Z,100442.48
2018-08-03T11:36:58.511Z,100442.23
2018-08-03T11:39:29.491Z,100438.66
2018-08-03T11:42:00.479Z,100434.82
2018-08-03T11:44:31.571Z,100434.56
2018-08-03T11:47:02.524Z,100420.00
2018-08-03T11:49:33.513Z,100427.03
2018-08-03T11:52:04.534Z,100426.36
2018-08-03T11:54:35.953Z,100427.88
2018-08-03T11:57:07.303Z,100428.59
2018-08-03T11:59:38.378Z,100420.80
2018-08-03T12:02:09.404Z,100414.77
2018-08-03T12:04:41.184Z,100415.78
2018-08-03T12:07:12.393Z,100406.85
2018-08-03T12:09:43.621Z,100400.56
2018-08-03T12:12:14.510Z,100407.81
2018-08-03T12:14:45.486Z,100395.65
2018-08-03T12:17:16.537Z,100396.05
2018-08-03T12:19:47.510Z,100395.30
2018-08-03T12:22:18.510Z,100385.45
2018-08-03T12:24:49.536Z,100385.02
2018-08-03T12:27:20.504Z,100378.14
2018-08-03T12:29:51.518Z,100390.31
2018-08-03T12:32:22.584Z,100383.81
2018-08-03T12:34:53.490Z,100380.44
2018-08-03T12:37:24.533Z,100374.20
2018-08-03T12:39:55.483Z,100371.17
2018-08-03T12:42:26.524Z,100356.84
2018-08-03T12:44:57.505Z,100362.22
2018-08-03T12:47:28.518Z,100356.72
2018-08-03T12:49:59.496Z,100356.05
2018-08-03T12:52:30.575Z,100347.83
2018-08-03T12:55:01.527Z,100343.59
2018-08-03T12:57:32.513Z,100341.65
2018-08-03T13:00:03.507Z,100340.77
2018-08-03T13:02:34.527Z,100334.56
2018-08-03T13:05:05.810Z,100338.64
2018-08-03T13:07:36.282Z,100333.83
2018-08-03T13:10:07.482Z,100332.55
2018-08-03T13:12:38.652Z,100330.98
2018-08-03T13:15:10.386Z,100322.28
2018-08-03T13:17:41.553Z,100326.14
2018-08-03T13:20:12.497Z,100331.47
2018-08-03T13:22:43.530Z,100331.64
2018-08-03T13:25:14.512Z,100327.98
2018-08-03T13:27:45.523Z,100338.95
2018-08-03T13:30:16.506Z,100328.69
2018-08-03T13:32:47.538Z,100322.55
2018-08-03T13:35:18.530Z,100322.91
2018-08-03T13:37:49.685Z,100320.73
2018-08-03T13:40:20.605Z,100322.09
2018-08-03T13:42:51.514Z,100311.13
2018-08-03T13:45:22.493Z,100308.14
2018-08-03T13:47:54.387Z,100307.48
2018-08-03T13:50:25.582Z,100307.77
2018-08-03T13:52:56.512Z,100297.33
2018-08-03T13:55:27.460Z,100294.41
2018-08-03T13:57:58.573Z,100290.00
2018-08-03T14:00:29.478Z,100287.01
2018-08-03T14:03:00.482Z,100283.85
2018-08-03T14:05:31.493Z,100280.41
2018-08-03T14:08:02.529Z,100285.88
2018-08-03T14:10:33.539Z,100284.66
2018-08-03T14:13:04.518Z,100281.33
2018-08-03T14:15:35.489Z,100276.41
2018-08-03T14:18:07.418Z,100273.72
2018-08-03T14:20:38.466Z,100275.38
2018-08-03T14:23:09.478Z,100266.92
2018-08-03T14:25:40.476Z,100264.41
2018-08-03T14:28:11.502Z,100255.70
2018-08-03T14:30:42.490Z,100254.25
2018-08-03T14:33:13.652Z,100252.19
2018-08-03T14:35:44.601Z,100249.31
2018-08-03T14:38:15.483Z,100254.83
2018-08-03T14:40:46.493Z,100242.83
2018-08-03T14:43:17.568Z,100243.11
2018-08-03T14:45:51.381Z,100249.12
2018-08-03T14:48:22.753Z,100247.30
2018-08-03T14:50:54.540Z,100242.31
2018-08-03T14:53:25.573Z,100246.28
2018-08-03T14:55:56.505Z,100241.63
2018-08-03T14:58:27.502Z,100237.81
2018-08-03T15:00:58.494Z,100243.00
2018-08-03T15:03:29.555Z,100236.73
2018-08-03T15:06:00.460Z,100234.34
2018-08-03T15:08:31.614Z,100231.50
2018-08-03T15:11:02.532Z,100221.45
2018-08-03T15:13:33.465Z,100226.77
2018-08-03T15:16:04.537Z,100219.89
2018-08-03T15:18:35.621Z,100218.39
2018-08-03T15:21:06.508Z,100223.97
2018-08-03T15:23:37.489Z,100215.12
2018-08-03T15:26:08.593Z,100214.88
2018-08-03T15:28:39.514Z,100212.48
2018-08-03T15:31:10.497Z,100215.53
2018-08-03T15:33:41.508Z,100214.95
2018-08-03T15:36:12.726Z,100209.87
2018-08-03T15:38:43.556Z,100206.03
2018-08-03T15:41:14.480Z,100212.36
2018-08-03T15:43:45.462Z,100207.48
2018-08-03T15:46:16.460Z,100202.66
2018-08-03T15:48:47.553Z,100207.83
2018-08-03T15:51:18.526Z,100207.55
2018-08-03T15:53:49.640Z,100203.37
2018-08-03T15:56:20.583Z,100200.20
2018-08-03T15:58:51.685Z,100196.67
2018-08-03T16:01:22.626Z,100196.48
2018-08-03T16:03:53.538Z,100193.48
2018-08-03T16:06:24.544Z,100197.97
2018-08-03T16:08:55.510Z,100187.23
2018-08-03T16:11:26.493Z,100185.31
2018-08-03T16:13:57.487Z,100180.96
2018-08-03T16:16:28.600Z,100180.16
2018-08-03T16:18:59.501Z,100177.09
2018-08-03T16:21:30.495Z,100182.66
2018-08-03T16:24:01.547Z,100174.63
2018-08-03T16:26:32.569Z,100164.51
2018-08-03T16:29:03.561Z,100168.09
2018-08-03T16:31:34.497Z,100163.66
2018-08-03T16:34:05.541Z,100168.10
2018-08-03T16:36:36.501Z,100165.72
2018-08-03T16:39:10.914Z,100160.00
2018-08-03T16:41:41.913Z,100162.11
2018-08-03T16:44:13.274Z,100158.23
2018-08-03T16:46:44.386Z,100164.11
2018-08-03T16:49:15.616Z,100153.89
2018-08-03T16:51:46.500Z,100166.89
2018-08-03T16:54:17.493Z,100157.91
2018-08-03T16:56:48.496Z,100163.62
2018-08-03T16:59:19.560Z,100161.89
2018-08-03T17:01:50.502Z,100162.42
2018-08-03T17:04:21.717Z,100163.59
2018-08-03T17:06:52.590Z,100164.56
2018-08-03T17:09:23.481Z,100160.20
2018-08-03T17:11:54.488Z,100159.19
2018-08-03T17:14:25.523Z,100154.09
2018-08-03T17:16:56.485Z,100154.63
2018-08-03T17:19:27.502Z,100159.37
2018-08-03T17:21:58.446Z,100160.26
2018-08-03T17:24:29.518Z,100150.39
2018-08-03T17:27:00.535Z,100151.22
2018-08-03T17:29:31.485Z,100150.39
2018-08-03T17:32:02.577Z,100151.86
2018-08-03T17:34:33.485Z,100150.69
2018-08-03T17:37:04.498Z,100151.31
2018-08-03T17:39:35.494Z,100145.08
2018-08-03T17:42:06.507Z,100152.48
2018-08-03T17:44:37.496Z,100149.20
2018-08-03T17:47:08.464Z,100147.53
2018-08-03T17:49:39.513Z,100147.88
2018-08-03T17:52:10.553Z,100143.83
2018-08-03T17:54:41.529Z,100144.66
2018-08-03T17:57:12.494Z,100150.20
2018-08-03T17:59:43.541Z,100152.98
2018-08-03T18:02:14.489Z,100146.38
2018-08-03T18:04:45.529Z,100153.80
2018-08-03T18:07:16.504Z,100145.87
2018-08-03T18:09:47.511Z,100148.38
2018-08-03T18:12:18.539Z,100154.16
2018-08-03T18:14:49.556Z,100159.37
2018-08-03T18:17:20.493Z,100150.06
2018-08-03T18:19:51.513Z,100145.67
2018-08-03T18:22:22.454Z,100149.00
2018-08-03T18:24:53.508Z,100155.04
2018-08-03T18:27:24.522Z,100151.44
2018-08-03T18:29:55.592Z,100151.45
2018-08-03T18:32:26.623Z,100153.09
2018-08-03T18:34:57.541Z,100154.76
2018-08-03T18:37:28.475Z,100163.24
2018-08-03T18:39:59.488Z,100159.68
2018-08-03T18:42:30.457Z,100158.33
2018-08-03T18:45:01.497Z,100147.59
2018-08-03T18:47:32.501Z,100152.52
2018-08-03T18:50:03.654Z,100154.42
2018-08-03T18:52:34.531Z,100159.90
2018-08-03T18:55:05.703Z,100151.41
2018-08-03T18:57:36.599Z,100159.03
2018-08-03T19:00:08.408Z,100158.20
2018-08-03T19:02:39.531Z,100166.64
2018-08-03T19:05:10.858Z,100169.35
2018-08-03T19:07:41.280Z,100168.52
2018-08-03T19:10:12.526Z,100173.97
2018-08-03T19:12:43.496Z,100170.38
2018-08-03T19:15:14.513Z,100168.44
2018-08-03T19:17:45.530Z,100181.83
2018-08-03T19:20:16.569Z,100175.22
2018-08-03T19:22:47.495Z,100181.22
2018-08-03T19:25:18.522Z,100183.89
2018-08-03T19:27:49.514Z,100179.50
2018-08-03T19:30:20.547Z,100189.05
2018-08-03T19:32:51.513Z,100188.70
2018-08-03T19:35:22.509Z,100191.67
2018-08-03T19:37:53.523Z,100191.94
2018-08-03T19:40:24.601Z,100192.16
2018-08-03T19:42:55.488Z,100199.78
2018-08-03T19:45:26.555Z,100196.19
2018-08-03T19:47:57.500Z,100199.90
2018-08-03T19:50:28.539Z,100195.27
2018-08-03T19:52:59.500Z,100194.41
2018-08-03T19:55:30.535Z,100193.27
2018-08-03T19:58:01.494Z,100193.04
2018-08-03T20:00:32.508Z,100197.03
2018-08-03T20:03:03.491Z,100198.66
2018-08-03T20:05:34.496Z,100204.89
2018-08-03T20:08:05.557Z,100201.78
2018-08-03T20:10:36.538Z,100200.08
2018-08-03T20:13:07.516Z,100202.80
2018-08-03T20:15:38.578Z,100206.33
2018-08-03T20:18:09.524Z,100198.89
2018-08-03T20:20:41.312Z,100195.30
2018-08-03T20:23:12.382Z,100198.52
2018-08-03T20:25:43.478Z,100193.81
2018-08-03T20:28:14.657Z,100201.99
2018-08-03T20:30:46.368Z,100203.54
2018-08-03T20:33:17.534Z,100210.58
2018-08-03T20:35:48.514Z,100206.49
2018-08-03T20:38:19.621Z,100208.90
2018-08-03T20:40:50.550Z,100209.65
2018-08-03T20:43:21.567Z,100210.96
2018-08-03T20:45:52.519Z,100205.73
2018-08-03T20:48:23.497Z,100205.72
2018-08-03T20:50:54.511Z,100204.36
2018-08-03T20:53:25.502Z,100210.83
2018-08-03T20:55:56.522Z,100208.08
2018-08-03T20:58:27.470Z,100215.22
2018-08-03T21:00:58.564Z,100213.02
2018-08-03T21:03:29.483Z,100212.31
2018-08-03T21:06:00.518Z,100217.02
2018-08-03T21:08:31.513Z,100217.02
2018-08-03T21:11:02.551Z,100214.91
2018-08-03T21:13:33.549Z,100226.00
2018-08-03T21:16:04.524Z,100214.25
2018-08-03T21:18:35.525Z,100215.88
2018-08-03T21:21:06.510Z,100220.05
2018-08-03T21:23:37.512Z,100225.20
2018-08-03T21:26:08.530Z,100231.80
2018-08-03T21:28:39.493Z,100226.47
2018-08-03T21:31:10.508Z,100219.97
2018-08-03T21:33:41.518Z,100227.24
2018-08-03T21:36:12.566Z,100231.13
2018-08-03T21:38:43.556Z,100226.73
2018-08-03T21:41:14.586Z,100226.69
2018-08-03T21:43:45.514Z,100226.09
2018-08-03T21:46:16.530Z,100224.59
2018-08-03T21:48:47.476Z,100232.43
2018-08-03T21:51:18.547Z,100227.45
2018-08-03T21:53:49.491Z,100229.98
2018-08-03T21:56:20.542Z,100234.00
2018-08-03T21:58:51.529Z,100235.15
2018-08-03T22:01:22.513Z,100237.88
2018-08-03T22:03:53.491Z,100239.35
2018-08-03T22:06:24.545Z,100233.58
2018-08-03T22:08:55.609Z,100240.46
2018-08-03T22:11:26.549Z,100236.30
2018-08-03T22:13:57.502Z,100233.66
2018-08-03T22:16:28.534Z,100234.83
2018-08-03T22:18:59.575Z,100235.82
2018-08-03T22:21:30.595Z,100230.63
2018-08-03T22:24:01.492Z,100233.77
2018-08-03T22:26:32.525Z,100233.07
2018-08-03T22:29:03.582Z,100231.95
2018-08-03T22:31:34.505Z,100233.23
2018-08-03T22:34:05.508Z,100237.91
2018-08-03T22:36:36.536Z,100236.48
2018-08-03T22:39:10.456Z,100230.70
2018-08-03T22:41:41.578Z,100229.63
2018-08-03T22:44:12.561Z,100229.69
2018-08-03T22:46:43.527Z,100228.55
2018-08-03T22:49:14.486Z,100227.37
2018-08-03T22:51:45.495Z,100224.55
2018-08-03T22:54:16.522Z,100227.55
2018-08-03T22:56:47.544Z,100226.53
2018-08-03T22:59:18.557Z,100221.09
2018-08-03T23:01:49.545Z,100223.40
2018-08-03T23:04:20.498Z,100223.30
2018-08-03T23:06:51.509Z,100228.42
2018-08-03T23:09:22.501Z,100219.13
2018-08-03T23:11:53.492Z,100220.27
2018-08-03T23:14:24.557Z,100218.88
2018-08-03T23:16:55.586Z,100215.58
2018-08-03T23:19:26.674Z,100213.91
2018-08-03T23:21:57.634Z,100218.65
2018-08-03T23:24:28.590Z,100221.78
2018-08-03T23:26:59.573Z,100217.71
2018-08-03T23:29:30.495Z,100215.59
2018-08-03T23:32:01.547Z,100214.65
2018-08-03T23:34:32.567Z,100221.20
2018-08-03T23:37:03.554Z,100219.80
2018-08-03T23:39:34.514Z,100208.94
2018-08-03T23:42:05.500Z,100208.59
2018-08-03T23:44:36.493Z,100210.37
2018-08-03T23:47:07.606Z,100215.91
2018-08-03T23:49:38.517Z,100211.03
2018-08-03T23:52:09.531Z,100206.78
2018-08-03T23:54:40.484Z,100205.14
2018-08-03T23:57:11.537Z,100202.70
2018-08-03T23:59:42.508Z,100205.08
